Time;durP1;ratioP1;P1;durP2;ratioP2;P2;SDS_P1;SDS_P2;PMS_P1;PMS_P2;Temp;Humidity;BMP_temperature;BMP_pressure;BME280_temperature;BME280_humidity;BME280_pressure;Samples;Min_cycle;Max_cycle;Signal;HPM_P1;HPM_P2
2023/07/06 07:11:47;;;;;;;5.00;2.38;;;;;;;;;;12913168;22;20020;-84
2023/07/06 07:16:48;;;;;;;5.68;2.78;;;;;;;;;;12855919;23;20004;-81
2023/07/06 07:21:50;;;;;;;6.38;3.03;;;;;;;;;;12857646;23;20074;-85
2023/07/06 07:26:51;;;;;;;8.93;3.92;;;;;;;;;;12874920;23;20436;-83
2023/07/06 07:31:52;;;;;;;10.13;3.40;;;;;;;;;;12850434;23;20005;-84
2023/07/06 07:36:53;;;;;;;10.90;3.33;;;;;;;;;;12850307;23;20004;-83
2023/07/06 07:41:54;;;;;;;6.78;2.95;;;;;;;;;;12878841;23;20000;-83
2023/07/06 07:46:56;;;;;;;8.40;3.70;;;;;;;;;;12848915;23;20380;-83
2023/07/06 07:51:57;;;;;;;6.78;2.83;;;;;;;;;;12852116;23;20039;-84
2023/07/06 07:56:58;;;;;;;11.73;3.60;;;;;;;;;;12859601;23;20040;-81
2023/07/06 08:01:59;;;;;;;7.80;4.43;;;;;;;;;;12879972;23;20000;-82
2023/07/06 08:07:01;;;;;;;6.57;3.50;;;;;;;;;;12882599;23;20009;-84
2023/07/06 08:12:03;;;;;;;10.43;3.85;;;;;;;;;;12850674;23;20387;-83
2023/07/06 08:17:05;;;;;;;12.18;5.97;;;;;;;;;;12860195;23;20000;-84
2023/07/06 08:22:06;;;;;;;8.57;4.00;;;;;;;;;;12870471;23;19997;-84
2023/07/06 08:27:07;;;;;;;8.18;3.47;;;;;;;;;;12863847;23;20024;-84
2023/07/06 08:32:11;;;;;;;7.03;2.92;;;;;;;;;;12858313;23;20008;-83
2023/07/06 08:37:12;;;;;;;10.75;5.20;;;;;;;;;;12851280;23;20088;-84
2023/07/06 08:42:16;;;;;;;8.40;4.43;;;;;;;;;;12852145;23;19997;-83
2023/07/06 08:47:17;;;;;;;7.97;3.75;;;;;;;;;;12858821;23;20012;-84
2023/07/06 08:52:19;;;;;;;10.65;3.38;;;;;;;;;;12858940;23;20119;-85
2023/07/06 08:57:22;;;;;;;8.68;3.38;;;;;;;;;;12861079;23;20031;-84
2023/07/06 09:02:27;;;;;;;8.20;3.30;;;;;;;;;;12860376;23;20330;-85
2023/07/06 09:07:32;;;;;;;6.85;2.80;;;;;;;;;;12858233;23;20012;-84
2023/07/06 09:12:39;;;;;;;11.73;7.88;;;;;;;;;;12899175;23;20051;-85
2023/07/06 09:17:45;;;;;;;7.75;2.85;;;;;;;;;;12901792;23;20146;-84
2023/07/06 09:22:48;;;;;;;9.65;3.78;;;;;;;;;;12869053;23;20005;-84
2023/07/06 09:27:50;;;;;;;10.07;5.35;;;;;;;;;;12867682;23;20032;-84
2023/07/06 09:32:53;;;;;;;8.40;4.15;;;;;;;;;;12872916;23;20052;-86
2023/07/06 09:37:55;;;;;;;4.70;2.60;;;;;;;;;;12870986;23;20014;-86
2023/07/06 09:42:56;;;;;;;5.28;2.33;;;;;;;;;;12863789;23;20084;-83
2023/07/06 09:48:07;;;;;;;7.35;3.00;;;;;;;;;;12866593;23;20005;-84
2023/07/06 09:53:11;;;;;;;9.82;4.45;;;;;;;;;;12868090;23;20026;-86
2023/07/06 09:58:15;;;;;;;9.60;6.65;;;;;;;;;;12864426;23;20039;-84
2023/07/06 10:03:19;;;;;;;5.45;3.55;;;;;;;;;;12864939;23;20004;-83
2023/07/06 10:08:22;;;;;;;6.57;2.95;;;;;;;;;;12864112;23;20400;-84
2023/07/06 10:13:41;;;;;;;5.32;2.50;;;;;;;;;;12867347;23;20027;-85
2023/07/06 10:18:51;;;;;;;5.20;2.30;;;;;;;;;;12839306;23;20418;-85
2023/07/06 10:24:08;;;;;;;5.47;2.88;;;;;;;;;;12864117;23;20009;-84
2023/07/06 10:29:11;;;;;;;4.93;2.42;;;;;;;;;;12898979;23;20000;-85
2023/07/06 10:34:24;;;;;;;5.95;2.95;;;;;;;;;;12871795;23;20039;-85
2023/07/06 10:39:25;;;;;;;8.25;2.40;;;;;;;;;;12870116;23;20009;-84
2023/07/06 10:44:45;;;;;;;3.90;2.00;;;;;;;;;;12871808;23;20062;-83
2023/07/06 10:50:06;;;;;;;4.10;2.40;;;;;;;;;;12870737;23;20007;-84
2023/07/06 10:55:36;;;;;;;3.90;2.30;;;;;;;;;;12870876;23;19996;-83
2023/07/06 11:00:38;;;;;;;8.98;6.30;;;;;;;;;;12836671;23;20011;-84
2023/07/06 11:05:52;;;;;;;4.57;2.10;;;;;;;;;;12863933;23;20124;-86
2023/07/06 11:10:53;;;;;;;4.28;2.22;;;;;;;;;;12862413;23;20024;-81
2023/07/06 11:15:56;;;;;;;4.07;2.30;;;;;;;;;;12862380;23;20008;-85
2023/07/06 11:21:01;;;;;;;4.07;2.03;;;;;;;;;;12864933;23;20004;-84
2023/07/06 11:26:13;;;;;;;3.78;2.28;;;;;;;;;;12864853;23;20433;-85
2023/07/06 11:31:36;;;;;;;3.67;2.15;;;;;;;;;;12874146;23;19989;-84
2023/07/06 11:36:55;;;;;;;3.90;1.80;;;;;;;;;;12900816;23;20004;-85
2023/07/06 11:41:58;;;;;;;4.18;1.90;;;;;;;;;;12866629;23;20000;-85
2023/07/06 11:47:15;;;;;;;3.70;1.85;;;;;;;;;;12864754;23;20067;-85
2023/07/06 11:52:19;;;;;;;4.28;2.30;;;;;;;;;;12860643;23;20001;-84
2023/07/06 11:57:41;;;;;;;4.55;2.28;;;;;;;;;;12861182;23;20000;-84
2023/07/06 12:02:50;;;;;;;3.83;1.95;;;;;;;;;;12867624;23;20167;-83
2023/07/06 12:08:23;;;;;;;3.67;2.20;;;;;;;;;;12873345;23;19989;-84
2023/07/06 12:13:34;;;;;;;3.70;2.10;;;;;;;;;;12809720;23;20004;-83
2023/07/06 12:18:36;;;;;;;2.75;1.60;;;;;;;;;;12869812;23;20015;-82
2023/07/06 12:23:39;;;;;;;3.67;1.73;;;;;;;;;;12866122;23;20004;-83
2023/07/06 12:28:44;;;;;;;4.03;1.60;;;;;;;;;;12867509;23;20009;-83
2023/07/06 12:33:45;;;;;;;4.30;1.98;;;;;;;;;;12876457;23;20030;-83
2023/07/06 12:38:47;;;;;;;3.78;2.10;;;;;;;;;;12877481;23;20005;-82
2023/07/06 12:43:53;;;;;;;4.32;2.38;;;;;;;;;;12869915;23;20015;-85
2023/07/06 12:48:54;;;;;;;4.20;2.15;;;;;;;;;;12867593;23;20005;-83
2023/07/06 12:53:57;;;;;;;3.95;2.83;;;;;;;;;;12865988;23;20007;-84
2023/07/06 12:58:59;;;;;;;3.67;2.80;;;;;;;;;;12861176;23;20004;-83
2023/07/06 13:04:01;;;;;;;5.18;3.35;;;;;;;;;;12864376;23;20012;-83
2023/07/06 13:09:34;;;;;;;6.25;3.22;;;;;;;;;;12880896;23;20021;-83
2023/07/06 13:20:54;;;;;;;4.50;2.70;;;;;;;;;;12692574;23;20014;-84
2023/07/06 13:43:27;;;;;;;4.53;2.90;;;;;;;;;;12817382;23;20013;-85
2023/07/06 16:21:23;;;;;;;3.17;1.90;;;;;;;;;;12870256;23;20092;-78
2023/07/06 16:43:46;;;;;;;4.57;1.90;;;;;;;;;;12866046;23;20009;-83
2023/07/06 16:49:16;;;;;;;3.05;1.50;;;;;;;;;;12891874;23;20012;-82
2023/07/06 17:00:27;;;;;;;3.05;1.65;;;;;;;;;;12909056;22;20068;-81
2023/07/06 17:06:08;;;;;;;3.13;1.70;;;;;;;;;;12845909;23;20175;-82
2023/07/06 17:17:15;;;;;;;3.13;1.63;;;;;;;;;;12632331;23;20015;-83
